sensor_id;sensor_type;location;lat;lon;timestamp;P1;durP1;ratioP1;P2;durP2;ratioP2
9986;SDS011;5033;46.310;11.214;2022-09-09T00:02:24;1.20;;;1.10;;
9986;SDS011;5033;46.310;11.214;2022-09-09T00:04:58;1.20;;;1.10;;
9986;SDS011;5033;46.310;11.214;2022-09-09T00:07:31;1.80;;;1.40;;
9986;SDS011;5033;46.310;11.214;2022-09-09T00:10:07;1.25;;;1.20;;
9986;SDS011;5033;46.310;11.214;2022-09-09T00:12:47;1.38;;;1.30;;
9986;SDS011;5033;46.310;11.214;2022-09-09T00:15:21;1.00;;;1.00;;
9986;SDS011;5033;46.310;11.214;2022-09-09T00:17:55;2.05;;;1.42;;
9986;SDS011;5033;46.310;11.214;2022-09-09T00:20:29;1.52;;;1.42;;
9986;SDS011;5033;46.310;11.214;2022-09-09T00:23:00;1.05;;;1.05;;
9986;SDS011;5033;46.310;11.214;2022-09-09T00:25:37;1.20;;;1.20;;
9986;SDS011;5033;46.310;11.214;2022-09-09T00:28:13;1.13;;;1.13;;
9986;SDS011;5033;46.310;11.214;2022-09-09T00:30:45;1.23;;;1.23;;
9986;SDS011;5033;46.310;11.214;2022-09-09T00:33:15;2.03;;;1.30;;
9986;SDS011;5033;46.310;11.214;2022-09-09T00:35:48;1.55;;;1.45;;
9986;SDS011;5033;46.310;11.214;2022-09-09T00:38:17;1.58;;;1.17;;
9986;SDS011;5033;46.310;11.214;2022-09-09T00:40:49;1.45;;;1.20;;
9986;SDS011;5033;46.310;11.214;2022-09-09T00:43:24;1.27;;;1.23;;
9986;SDS011;5033;46.310;11.214;2022-09-09T00:49:02;1.30;;;1.20;;
9986;SDS011;5033;46.310;11.214;2022-09-09T00:51:39;1.33;;;1.27;;
9986;SDS011;5033;46.310;11.214;2022-09-09T00:57:05;1.25;;;1.25;;
9986;SDS011;5033;46.310;11.214;2022-09-09T00:59:42;1.42;;;1.23;;
9986;SDS011;5033;46.310;11.214;2022-09-09T01:02:16;1.23;;;1.10;;
9986;SDS011;5033;46.310;11.214;2022-09-09T01:04:54;1.38;;;1.27;;
9986;SDS011;5033;46.310;11.214;2022-09-09T01:07:25;2.15;;;1.17;;
9986;SDS011;5033;46.310;11.214;2022-09-09T01:09:54;1.05;;;1.05;;
9986;SDS011;5033;46.310;11.214;2022-09-09T01:12:28;4.10;;;1.60;;
9986;SDS011;5033;46.310;11.214;2022-09-09T01:15:03;1.80;;;1.45;;
9986;SDS011;5033;46.310;11.214;2022-09-09T01:17:44;1.00;;;1.00;;
9986;SDS011;5033;46.310;11.214;2022-09-09T01:20:19;3.08;;;1.30;;
9986;SDS011;5033;46.310;11.214;2022-09-09T01:22:52;1.95;;;1.40;;
9986;SDS011;5033;46.310;11.214;2022-09-09T01:28:43;1.25;;;1.25;;
9986;SDS011;5033;46.310;11.214;2022-09-09T01:31:14;1.33;;;1.23;;
9986;SDS011;5033;46.310;11.214;2022-09-09T01:33:44;4.32;;;1.42;;
9986;SDS011;5033;46.310;11.214;2022-09-09T01:36:12;1.17;;;1.17;;
9986;SDS011;5033;46.310;11.214;2022-09-09T01:38:45;2.10;;;1.17;;
9986;SDS011;5033;46.310;11.214;2022-09-09T01:41:12;1.50;;;1.40;;
9986;SDS011;5033;46.310;11.214;2022-09-09T01:43:39;1.40;;;1.30;;
9986;SDS011;5033;46.310;11.214;2022-09-09T01:46:08;1.20;;;1.10;;
9986;SDS011;5033;46.310;11.214;2022-09-09T01:48:37;1.40;;;1.30;;
9986;SDS011;5033;46.310;11.214;2022-09-09T01:51:05;1.50;;;1.40;;
9986;SDS011;5033;46.310;11.214;2022-09-09T01:53:33;1.30;;;1.20;;
9986;SDS011;5033;46.310;11.214;2022-09-09T01:56:03;1.20;;;1.20;;
9986;SDS011;5033;46.310;11.214;2022-09-09T01:58:39;1.27;;;1.20;;
9986;SDS011;5033;46.310;11.214;2022-09-09T02:01:22;1.30;;;1.20;;
9986;SDS011;5033;46.310;11.214;2022-09-09T02:03:58;1.30;;;1.30;;
9986;SDS011;5033;46.310;11.214;2022-09-09T02:06:35;1.33;;;1.30;;
9986;SDS011;5033;46.310;11.214;2022-09-09T02:09:04;1.30;;;1.20;;
9986;SDS011;5033;46.310;11.214;2022-09-09T02:11:33;1.92;;;1.55;;
9986;SDS011;5033;46.310;11.214;2022-09-09T02:14:02;1.67;;;1.10;;
9986;SDS011;5033;46.310;11.214;2022-09-09T02:16:37;1.00;;;1.00;;
9986;SDS011;5033;46.310;11.214;2022-09-09T02:19:08;1.77;;;1.50;;
9986;SDS011;5033;46.310;11.214;2022-09-09T02:21:41;1.20;;;1.20;;
9986;SDS011;5033;46.310;11.214;2022-09-09T02:24:11;1.20;;;1.20;;
9986;SDS011;5033;46.310;11.214;2022-09-09T02:26:42;1.25;;;1.25;;
9986;SDS011;5033;46.310;11.214;2022-09-09T02:29:12;1.13;;;1.10;;
9986;SDS011;5033;46.310;11.214;2022-09-09T02:31:45;1.15;;;1.15;;
9986;SDS011;5033;46.310;11.214;2022-09-09T02:34:15;1.30;;;1.30;;
9986;SDS011;5033;46.310;11.214;2022-09-09T02:36:46;1.13;;;1.10;;
9986;SDS011;5033;46.310;11.214;2022-09-09T02:39:15;1.30;;;1.20;;
9986;SDS011;5033;46.310;11.214;2022-09-09T02:41:42;1.27;;;1.20;;
9986;SDS011;5033;46.310;11.214;2022-09-09T02:44:09;0.90;;;0.90;;
9986;SDS011;5033;46.310;11.214;2022-09-09T02:46:43;1.25;;;1.25;;
9986;SDS011;5033;46.310;11.214;2022-09-09T02:49:35;0.98;;;0.98;;
9986;SDS011;5033;46.310;11.214;2022-09-09T02:52:07;3.53;;;1.30;;
9986;SDS011;5033;46.310;11.214;2022-09-09T02:54:40;1.08;;;1.08;;
9986;SDS011;5033;46.310;11.214;2022-09-09T02:57:10;1.08;;;1.00;;
9986;SDS011;5033;46.310;11.214;2022-09-09T02:59:39;1.42;;;1.20;;
9986;SDS011;5033;46.310;11.214;2022-09-09T03:02:08;1.10;;;1.10;;
9986;SDS011;5033;46.310;11.214;2022-09-09T03:04:36;1.20;;;1.20;;
9986;SDS011;5033;46.310;11.214;2022-09-09T03:07:03;1.17;;;1.08;;
9986;SDS011;5033;46.310;11.214;2022-09-09T03:09:30;2.15;;;1.15;;
9986;SDS011;5033;46.310;11.214;2022-09-09T03:11:58;1.30;;;1.10;;
9986;SDS011;5033;46.310;11.214;2022-09-09T03:14:25;1.00;;;1.00;;
9986;SDS011;5033;46.310;11.214;2022-09-09T03:16:52;1.45;;;1.30;;
9986;SDS011;5033;46.310;11.214;2022-09-09T03:19:22;1.30;;;1.20;;
9986;SDS011;5033;46.310;11.214;2022-09-09T03:21:49;1.05;;;1.05;;
9986;SDS011;5033;46.310;11.214;2022-09-09T03:24:17;1.25;;;1.20;;
9986;SDS011;5033;46.310;11.214;2022-09-09T03:26:44;1.10;;;1.10;;
9986;SDS011;5033;46.310;11.214;2022-09-09T03:29:12;1.35;;;1.25;;
9986;SDS011;5033;46.310;11.214;2022-09-09T03:31:39;1.08;;;1.08;;
9986;SDS011;5033;46.310;11.214;2022-09-09T03:34:08;1.30;;;1.20;;
9986;SDS011;5033;46.310;11.214;2022-09-09T03:36:36;1.10;;;1.10;;
9986;SDS011;5033;46.310;11.214;2022-09-09T03:39:03;1.30;;;1.20;;
9986;SDS011;5033;46.310;11.214;2022-09-09T03:41:31;1.25;;;1.15;;
9986;SDS011;5033;46.310;11.214;2022-09-09T03:43:59;1.38;;;1.27;;
9986;SDS011;5033;46.310;11.214;2022-09-09T03:46:26;1.50;;;1.40;;
9986;SDS011;5033;46.310;11.214;2022-09-09T03:48:53;1.30;;;1.20;;
9986;SDS011;5033;46.310;11.214;2022-09-09T03:51:20;1.45;;;1.20;;
9986;SDS011;5033;46.310;11.214;2022-09-09T03:53:49;1.20;;;1.20;;
9986;SDS011;5033;46.310;11.214;2022-09-09T03:56:16;0.88;;;0.88;;
9986;SDS011;5033;46.310;11.214;2022-09-09T03:58:43;1.08;;;1.08;;
9986;SDS011;5033;46.310;11.214;2022-09-09T04:01:10;1.40;;;1.20;;
9986;SDS011;5033;46.310;11.214;2022-09-09T04:03:39;1.17;;;1.08;;
9986;SDS011;5033;46.310;11.214;2022-09-09T04:06:07;1.45;;;1.15;;
9986;SDS011;5033;46.310;11.214;2022-09-09T04:08:36;1.27;;;1.20;;
9986;SDS011;5033;46.310;11.214;2022-09-09T04:11:05;1.23;;;1.23;;
9986;SDS011;5033;46.310;11.214;2022-09-09T04:13:33;1.25;;;1.25;;
9986;SDS011;5033;46.310;11.214;2022-09-09T04:16:01;1.30;;;1.20;;
9986;SDS011;5033;46.310;11.214;2022-09-09T04:18:29;1.05;;;1.05;;
9986;SDS011;5033;46.310;11.214;2022-09-09T04:20:57;1.63;;;1.52;;
9986;SDS011;5033;46.310;11.214;2022-09-09T04:23:25;1.50;;;1.40;;
9986;SDS011;5033;46.310;11.214;2022-09-09T04:25:54;1.08;;;1.08;;
9986;SDS011;5033;46.310;11.214;2022-09-09T04:28:24;1.88;;;1.50;;
9986;SDS011;5033;46.310;11.214;2022-09-09T04:30:52;1.50;;;1.38;;
9986;SDS011;5033;46.310;11.214;2022-09-09T04:33:20;1.35;;;1.30;;
9986;SDS011;5033;46.310;11.214;2022-09-09T04:35:48;2.10;;;1.55;;
9986;SDS011;5033;46.310;11.214;2022-09-09T04:38:19;2.08;;;1.50;;
9986;SDS011;5033;46.310;11.214;2022-09-09T04:40:48;1.45;;;1.35;;
9986;SDS011;5033;46.310;11.214;2022-09-09T04:43:17;1.30;;;1.30;;
9986;SDS011;5033;46.310;11.214;2022-09-09T04:45:46;2.42;;;1.50;;
9986;SDS011;5033;46.310;11.214;2022-09-09T04:48:14;1.42;;;1.33;;
9986;SDS011;5033;46.310;11.214;2022-09-09T04:50:42;1.50;;;1.40;;
9986;SDS011;5033;46.310;11.214;2022-09-09T04:53:09;3.03;;;1.30;;
9986;SDS011;5033;46.310;11.214;2022-09-09T04:55:36;1.50;;;1.40;;
9986;SDS011;5033;46.310;11.214;2022-09-09T04:58:03;1.33;;;1.33;;
9986;SDS011;5033;46.310;11.214;2022-09-09T05:00:31;1.30;;;1.20;;
9986;SDS011;5033;46.310;11.214;2022-09-09T05:03:01;1.27;;;1.20;;
9986;SDS011;5033;46.310;11.214;2022-09-09T05:05:29;2.17;;;1.40;;
9986;SDS011;5033;46.310;11.214;2022-09-09T05:08:00;1.00;;;1.00;;
9986;SDS011;5033;46.310;11.214;2022-09-09T05:10:28;1.23;;;1.23;;
9986;SDS011;5033;46.310;11.214;2022-09-09T05:12:55;1.20;;;1.20;;
9986;SDS011;5033;46.310;11.214;2022-09-09T05:15:23;1.20;;;1.20;;
9986;SDS011;5033;46.310;11.214;2022-09-09T05:17:50;1.20;;;1.10;;
9986;SDS011;5033;46.310;11.214;2022-09-09T05:20:19;1.20;;;1.10;;
9986;SDS011;5033;46.310;11.214;2022-09-09T05:22:46;1.02;;;1.02;;
9986;SDS011;5033;46.310;11.214;2022-09-09T05:25:14;1.15;;;1.15;;
9986;SDS011;5033;46.310;11.214;2022-09-09T05:27:41;1.23;;;1.13;;
9986;SDS011;5033;46.310;11.214;2022-09-09T05:30:09;1.98;;;1.15;;
9986;SDS011;5033;46.310;11.214;2022-09-09T05:32:36;0.95;;;0.93;;
9986;SDS011;5033;46.310;11.214;2022-09-09T05:35:04;1.27;;;1.25;;
9986;SDS011;5033;46.310;11.214;2022-09-09T05:37:32;1.38;;;1.27;;
9986;SDS011;5033;46.310;11.214;2022-09-09T05:40:00;1.10;;;1.10;;
9986;SDS011;5033;46.310;11.214;2022-09-09T05:42:29;1.20;;;1.10;;
9986;SDS011;5033;46.310;11.214;2022-09-09T05:44:57;1.20;;;1.20;;
9986;SDS011;5033;46.310;11.214;2022-09-09T05:47:24;1.60;;;1.30;;
9986;SDS011;5033;46.310;11.214;2022-09-09T05:49:53;1.30;;;1.20;;
9986;SDS011;5033;46.310;11.214;2022-09-09T05:52:20;1.42;;;1.10;;
9986;SDS011;5033;46.310;11.214;2022-09-09T05:54:49;1.23;;;1.17;;
9986;SDS011;5033;46.310;11.214;2022-09-09T05:57:16;1.88;;;1.30;;
9986;SDS011;5033;46.310;11.214;2022-09-09T05:59:44;1.00;;;1.00;;
9986;SDS011;5033;46.310;11.214;2022-09-09T06:02:11;1.42;;;1.20;;
9986;SDS011;5033;46.310;11.214;2022-09-09T06:04:39;1.35;;;1.15;;
9986;SDS011;5033;46.310;11.214;2022-09-09T06:07:07;1.52;;;1.20;;
9986;SDS011;5033;46.310;11.214;2022-09-09T06:09:34;1.30;;;1.20;;
9986;SDS011;5033;46.310;11.214;2022-09-09T06:12:03;1.30;;;1.10;;
9986;SDS011;5033;46.310;11.214;2022-09-09T06:14:30;2.97;;;1.30;;
9986;SDS011;5033;46.310;11.214;2022-09-09T06:16:57;1.52;;;1.00;;
9986;SDS011;5033;46.310;11.214;2022-09-09T06:19:24;2.15;;;1.10;;
9986;SDS011;5033;46.310;11.214;2022-09-09T06:21:52;1.33;;;1.20;;
9986;SDS011;5033;46.310;11.214;2022-09-09T06:24:19;1.10;;;1.00;;
9986;SDS011;5033;46.310;11.214;2022-09-09T06:26:47;1.90;;;1.20;;
9986;SDS011;5033;46.310;11.214;2022-09-09T06:29:15;1.33;;;1.23;;
9986;SDS011;5033;46.310;11.214;2022-09-09T06:31:42;1.58;;;1.20;;
9986;SDS011;5033;46.310;11.214;2022-09-09T06:34:09;1.38;;;1.25;;
9986;SDS011;5033;46.310;11.214;2022-09-09T06:36:37;2.25;;;1.35;;
9986;SDS011;5033;46.310;11.214;2022-09-09T06:39:07;1.60;;;1.10;;
9986;SDS011;5033;46.310;11.214;2022-09-09T06:41:37;1.50;;;1.40;;
9986;SDS011;5033;46.310;11.214;2022-09-09T06:44:04;1.30;;;1.20;;
9986;SDS011;5033;46.310;11.214;2022-09-09T06:46:33;1.00;;;1.00;;
9986;SDS011;5033;46.310;11.214;2022-09-09T06:49:00;6.05;;;2.10;;
9986;SDS011;5033;46.310;11.214;2022-09-09T06:51:28;1.25;;;1.15;;
9986;SDS011;5033;46.310;11.214;2022-09-09T06:53:57;2.85;;;1.23;;
9986;SDS011;5033;46.310;11.214;2022-09-09T06:56:27;1.40;;;1.30;;
9986;SDS011;5033;46.310;11.214;2022-09-09T06:58:56;1.40;;;1.30;;
9986;SDS011;5033;46.310;11.214;2022-09-09T07:01:26;2.58;;;1.45;;
9986;SDS011;5033;46.310;11.214;2022-09-09T07:03:57;1.23;;;1.02;;
9986;SDS011;5033;46.310;11.214;2022-09-09T07:06:25;1.38;;;1.27;;
9986;SDS011;5033;46.310;11.214;2022-09-09T07:08:54;1.42;;;1.17;;
9986;SDS011;5033;46.310;11.214;2022-09-09T07:11:24;1.45;;;1.20;;
9986;SDS011;5033;46.310;11.214;2022-09-09T07:13:52;2.25;;;1.52;;
9986;SDS011;5033;46.310;11.214;2022-09-09T07:16:20;3.28;;;1.70;;
9986;SDS011;5033;46.310;11.214;2022-09-09T07:18:48;1.50;;;1.40;;
9986;SDS011;5033;46.310;11.214;2022-09-09T07:21:17;1.80;;;1.38;;
9986;SDS011;5033;46.310;11.214;2022-09-09T07:23:45;1.50;;;1.40;;
9986;SDS011;5033;46.310;11.214;2022-09-09T07:26:13;1.02;;;1.00;;
9986;SDS011;5033;46.310;11.214;2022-09-09T07:28:41;1.25;;;1.00;;
9986;SDS011;5033;46.310;11.214;2022-09-09T07:31:12;1.17;;;1.17;;
9986;SDS011;5033;46.310;11.214;2022-09-09T07:33:42;1.48;;;1.25;;
9986;SDS011;5033;46.310;11.214;2022-09-09T07:36:10;1.00;;;1.00;;
9986;SDS011;5033;46.310;11.214;2022-09-09T07:38:42;1.33;;;1.23;;
9986;SDS011;5033;46.310;11.214;2022-09-09T07:41:11;1.70;;;1.23;;
9986;SDS011;5033;46.310;11.214;2022-09-09T07:43:40;1.10;;;1.00;;
9986;SDS011;5033;46.310;11.214;2022-09-09T07:46:07;1.63;;;1.30;;
9986;SDS011;5033;46.310;11.214;2022-09-09T07:48:36;1.70;;;1.45;;
9986;SDS011;5033;46.310;11.214;2022-09-09T07:51:07;1.13;;;1.08;;
9986;SDS011;5033;46.310;11.214;2022-09-09T07:53:36;1.67;;;1.17;;
9986;SDS011;5033;46.310;11.214;2022-09-09T07:56:07;1.13;;;1.10;;
9986;SDS011;5033;46.310;11.214;2022-09-09T07:58:36;1.38;;;1.27;;
9986;SDS011;5033;46.310;11.214;2022-09-09T08:01:07;1.27;;;1.10;;
9986;SDS011;5033;46.310;11.214;2022-09-09T08:03:35;1.88;;;1.63;;
9986;SDS011;5033;46.310;11.214;2022-09-09T08:06:03;1.55;;;1.27;;
9986;SDS011;5033;46.310;11.214;2022-09-09T08:08:32;1.80;;;1.50;;
9986;SDS011;5033;46.310;11.214;2022-09-09T08:11:05;3.17;;;1.48;;
9986;SDS011;5033;46.310;11.214;2022-09-09T08:13:36;5.03;;;2.28;;
9986;SDS011;5033;46.310;11.214;2022-09-09T08:16:08;1.48;;;1.25;;
9986;SDS011;5033;46.310;11.214;2022-09-09T08:18:37;1.35;;;1.25;;
9986;SDS011;5033;46.310;11.214;2022-09-09T08:21:05;1.25;;;1.15;;
9986;SDS011;5033;46.310;11.214;2022-09-09T08:23:34;1.90;;;1.23;;
9986;SDS011;5033;46.310;11.214;2022-09-09T08:26:05;1.15;;;1.10;;
9986;SDS011;5033;46.310;11.214;2022-09-09T08:28:36;1.00;;;1.00;;
9986;SDS011;5033;46.310;11.214;2022-09-09T08:31:07;2.05;;;1.27;;
9986;SDS011;5033;46.310;11.214;2022-09-09T08:33:35;1.73;;;1.30;;
9986;SDS011;5033;46.310;11.214;2022-09-09T08:36:04;1.23;;;1.13;;
9986;SDS011;5033;46.310;11.214;2022-09-09T08:38:31;1.95;;;1.23;;
9986;SDS011;5033;46.310;11.214;2022-09-09T08:41:03;1.10;;;1.10;;
9986;SDS011;5033;46.310;11.214;2022-09-09T08:43:58;1.10;;;1.10;;
9986;SDS011;5033;46.310;11.214;2022-09-09T08:46:32;1.10;;;1.10;;
9986;SDS011;5033;46.310;11.214;2022-09-09T08:49:12;1.33;;;1.23;;
9986;SDS011;5033;46.310;11.214;2022-09-09T08:51:46;1.55;;;1.20;;
9986;SDS011;5033;46.310;11.214;2022-09-09T08:54:14;1.60;;;1.50;;
9986;SDS011;5033;46.310;11.214;2022-09-09T08:56:43;2.90;;;1.98;;
9986;SDS011;5033;46.310;11.214;2022-09-09T08:59:11;1.80;;;1.67;;
9986;SDS011;5033;46.310;11.214;2022-09-09T09:04:35;2.38;;;1.60;;
9986;SDS011;5033;46.310;11.214;2022-09-09T09:07:14;1.80;;;1.70;;
9986;SDS011;5033;46.310;11.214;2022-09-09T09:09:51;1.85;;;1.75;;
9986;SDS011;5033;46.310;11.214;2022-09-09T09:12:26;1.60;;;1.50;;
9986;SDS011;5033;46.310;11.214;2022-09-09T09:14:55;2.53;;;1.25;;
9986;SDS011;5033;46.310;11.214;2022-09-09T09:17:24;1.65;;;1.33;;
9986;SDS011;5033;46.310;11.214;2022-09-09T09:19:56;1.27;;;1.13;;
9986;SDS011;5033;46.310;11.214;2022-09-09T09:22:26;1.40;;;1.30;;
9986;SDS011;5033;46.310;11.214;2022-09-09T09:25:02;2.45;;;1.52;;
9986;SDS011;5033;46.310;11.214;2022-09-09T09:27:40;1.83;;;1.42;;
9986;SDS011;5033;46.310;11.214;2022-09-09T09:30:13;1.50;;;1.40;;
9986;SDS011;5033;46.310;11.214;2022-09-09T09:32:45;3.13;;;1.45;;
9986;SDS011;5033;46.310;11.214;2022-09-09T09:35:18;1.35;;;1.25;;
9986;SDS011;5033;46.310;11.214;2022-09-09T09:37:45;1.20;;;1.20;;
9986;SDS011;5033;46.310;11.214;2022-09-09T09:40:13;1.33;;;1.25;;
9986;SDS011;5033;46.310;11.214;2022-09-09T09:42:49;1.52;;;1.42;;
9986;SDS011;5033;46.310;11.214;2022-09-09T09:45:23;3.08;;;1.90;;
9986;SDS011;5033;46.310;11.214;2022-09-09T09:47:58;1.75;;;1.48;;
9986;SDS011;5033;46.310;11.214;2022-09-09T09:50:27;1.40;;;1.30;;
9986;SDS011;5033;46.310;11.214;2022-09-09T09:52:55;1.40;;;1.30;;
9986;SDS011;5033;46.310;11.214;2022-09-09T09:55:23;1.50;;;1.40;;
9986;SDS011;5033;46.310;11.214;2022-09-09T09:57:54;1.60;;;1.50;;
9986;SDS011;5033;46.310;11.214;2022-09-09T10:00:27;2.42;;;1.77;;
9986;SDS011;5033;46.310;11.214;2022-09-09T10:02:55;1.80;;;1.52;;
9986;SDS011;5033;46.310;11.214;2022-09-09T10:05:22;1.60;;;1.50;;
9986;SDS011;5033;46.310;11.214;2022-09-09T10:08:00;1.55;;;1.45;;
9986;SDS011;5033;46.310;11.214;2022-09-09T10:10:35;1.80;;;1.70;;
9986;SDS011;5033;46.310;11.214;2022-09-09T10:13:11;1.52;;;1.42;;
9986;SDS011;5033;46.310;11.214;2022-09-09T10:15:48;1.45;;;1.30;;
9986;SDS011;5033;46.310;11.214;2022-09-09T10:18:34;1.40;;;1.30;;
9986;SDS011;5033;46.310;11.214;2022-09-09T10:21:11;2.63;;;1.70;;
9986;SDS011;5033;46.310;11.214;2022-09-09T10:23:54;1.75;;;1.60;;
9986;SDS011;5033;46.310;11.214;2022-09-09T10:26:36;1.50;;;1.40;;
9986;SDS011;5033;46.310;11.214;2022-09-09T10:29:13;1.92;;;1.83;;
9986;SDS011;5033;46.310;11.214;2022-09-09T10:31:50;2.05;;;1.70;;
9986;SDS011;5033;46.310;11.214;2022-09-09T10:34:34;1.33;;;1.20;;
9986;SDS011;5033;46.310;11.214;2022-09-09T10:37:18;1.52;;;1.42;;
9986;SDS011;5033;46.310;11.214;2022-09-09T10:39:59;1.13;;;1.02;;
9986;SDS011;5033;46.310;11.214;2022-09-09T10:42:35;1.23;;;1.17;;
9986;SDS011;5033;46.310;11.214;2022-09-09T10:45:07;1.73;;;1.50;;
9986;SDS011;5033;46.310;11.214;2022-09-09T10:47:47;1.20;;;1.10;;
9986;SDS011;5033;46.310;11.214;2022-09-09T10:50:34;1.30;;;1.20;;
9986;SDS011;5033;46.310;11.214;2022-09-09T10:53:18;1.67;;;1.20;;
9986;SDS011;5033;46.310;11.214;2022-09-09T10:55:56;1.30;;;1.20;;
9986;SDS011;5033;46.310;11.214;2022-09-09T10:58:28;1.38;;;1.20;;
9986;SDS011;5033;46.310;11.214;2022-09-09T11:01:05;2.05;;;1.20;;
9986;SDS011;5033;46.310;11.214;2022-09-09T11:03:39;1.17;;;1.08;;
9986;SDS011;5033;46.310;11.214;2022-09-09T11:06:09;1.40;;;1.30;;
9986;SDS011;5033;46.310;11.214;2022-09-09T11:08:41;1.10;;;1.02;;
9986;SDS011;5033;46.310;11.214;2022-09-09T11:11:09;1.73;;;1.20;;
9986;SDS011;5033;46.310;11.214;2022-09-09T11:13:42;1.50;;;1.20;;
9986;SDS011;5033;46.310;11.214;2022-09-09T11:16:19;1.70;;;1.17;;
9986;SDS011;5033;46.310;11.214;2022-09-09T11:18:53;1.50;;;1.40;;
9986;SDS011;5033;46.310;11.214;2022-09-09T11:21:26;2.00;;;1.70;;
9986;SDS011;5033;46.310;11.214;2022-09-09T11:23:57;1.40;;;1.30;;
9986;SDS011;5033;46.310;11.214;2022-09-09T11:26:30;1.42;;;1.15;;
9986;SDS011;5033;46.310;11.214;2022-09-09T11:32:17;1.52;;;1.40;;
9986;SDS011;5033;46.310;11.214;2022-09-09T11:35:01;1.38;;;1.20;;
9986;SDS011;5033;46.310;11.214;2022-09-09T11:37:45;1.40;;;1.30;;
9986;SDS011;5033;46.310;11.214;2022-09-09T11:40:28;6.00;;;1.83;;
9986;SDS011;5033;46.310;11.214;2022-09-09T11:43:03;1.15;;;1.02;;
9986;SDS011;5033;46.310;11.214;2022-09-09T11:45:34;1.27;;;1.23;;
9986;SDS011;5033;46.310;11.214;2022-09-09T11:48:04;1.50;;;1.40;;
9986;SDS011;5033;46.310;11.214;2022-09-09T11:50:33;1.10;;;1.10;;
9986;SDS011;5033;46.310;11.214;2022-09-09T11:53:03;2.08;;;1.20;;
9986;SDS011;5033;46.310;11.214;2022-09-09T11:55:41;1.05;;;1.05;;
9986;SDS011;5033;46.310;11.214;2022-09-09T11:58:15;0.98;;;0.98;;
9986;SDS011;5033;46.310;11.214;2022-09-09T12:00:46;2.17;;;1.13;;
9986;SDS011;5033;46.310;11.214;2022-09-09T12:06:15;1.83;;;1.50;;
9986;SDS011;5033;46.310;11.214;2022-09-09T12:08:46;1.08;;;1.00;;
9986;SDS011;5033;46.310;11.214;2022-09-09T12:11:27;1.15;;;1.05;;
9986;SDS011;5033;46.310;11.214;2022-09-09T12:13:57;1.30;;;1.20;;
9986;SDS011;5033;46.310;11.214;2022-09-09T12:16:30;1.45;;;1.20;;
9986;SDS011;5033;46.310;11.214;2022-09-09T12:19:13;1.02;;;1.02;;
9986;SDS011;5033;46.310;11.214;2022-09-09T12:21:44;1.30;;;1.00;;
9986;SDS011;5033;46.310;11.214;2022-09-09T12:24:17;1.00;;;0.90;;
9986;SDS011;5033;46.310;11.214;2022-09-09T12:26:51;7.45;;;1.33;;
9986;SDS011;5033;46.310;11.214;2022-09-09T12:29:25;1.00;;;1.00;;
9986;SDS011;5033;46.310;11.214;2022-09-09T12:31:59;1.00;;;0.90;;
9986;SDS011;5033;46.310;11.214;2022-09-09T12:34:36;1.20;;;1.10;;
9986;SDS011;5033;46.310;11.214;2022-09-09T12:37:06;1.73;;;1.13;;
9986;SDS011;5033;46.310;11.214;2022-09-09T12:39:44;0.85;;;0.85;;
9986;SDS011;5033;46.310;11.214;2022-09-09T12:42:15;0.90;;;0.90;;
9986;SDS011;5033;46.310;11.214;2022-09-09T12:44:51;1.60;;;1.25;;
9986;SDS011;5033;46.310;11.214;2022-09-09T12:47:19;1.10;;;1.00;;
9986;SDS011;5033;46.310;11.214;2022-09-09T12:49:51;1.10;;;1.10;;
9986;SDS011;5033;46.310;11.214;2022-09-09T12:52:23;1.15;;;0.98;;
9986;SDS011;5033;46.310;11.214;2022-09-09T12:54:55;1.70;;;1.10;;
9986;SDS011;5033;46.310;11.214;2022-09-09T12:57:25;1.27;;;1.17;;
9986;SDS011;5033;46.310;11.214;2022-09-09T13:00:04;1.40;;;1.00;;
9986;SDS011;5033;46.310;11.214;2022-09-09T13:02:45;1.40;;;1.00;;
9986;SDS011;5033;46.310;11.214;2022-09-09T13:05:16;1.30;;;1.10;;
9986;SDS011;5033;46.310;11.214;2022-09-09T13:07:45;1.10;;;1.10;;
9986;SDS011;5033;46.310;11.214;2022-09-09T13:10:14;1.73;;;0.90;;
9986;SDS011;5033;46.310;11.214;2022-09-09T13:12:45;0.93;;;0.93;;
9986;SDS011;5033;46.310;11.214;2022-09-09T13:15:14;1.05;;;1.00;;
9986;SDS011;5033;46.310;11.214;2022-09-09T13:17:54;1.20;;;0.85;;
9986;SDS011;5033;46.310;11.214;2022-09-09T13:20:24;0.80;;;0.80;;
9986;SDS011;5033;46.310;11.214;2022-09-09T13:22:52;0.85;;;0.85;;
9986;SDS011;5033;46.310;11.214;2022-09-09T13:25:22;1.13;;;0.90;;
9986;SDS011;5033;46.310;11.214;2022-09-09T13:27:54;1.27;;;1.17;;
9986;SDS011;5033;46.310;11.214;2022-09-09T13:30:24;1.25;;;1.15;;
9986;SDS011;5033;46.310;11.214;2022-09-09T13:33:00;1.30;;;1.17;;
9986;SDS011;5033;46.310;11.214;2022-09-09T13:35:29;1.17;;;0.88;;
9986;SDS011;5033;46.310;11.214;2022-09-09T13:37:57;1.33;;;1.00;;
9986;SDS011;5033;46.310;11.214;2022-09-09T13:40:25;1.13;;;1.05;;
9986;SDS011;5033;46.310;11.214;2022-09-09T13:42:55;1.15;;;0.98;;
9986;SDS011;5033;46.310;11.214;2022-09-09T13:45:25;1.15;;;1.05;;
9986;SDS011;5033;46.310;11.214;2022-09-09T13:47:55;1.30;;;1.20;;
9986;SDS011;5033;46.310;11.214;2022-09-09T13:50:36;0.70;;;0.70;;
9986;SDS011;5033;46.310;11.214;2022-09-09T13:53:03;1.20;;;0.80;;
9986;SDS011;5033;46.310;11.214;2022-09-09T13:55:30;0.80;;;0.80;;
9986;SDS011;5033;46.310;11.214;2022-09-09T13:57:58;0.90;;;0.90;;
9986;SDS011;5033;46.310;11.214;2022-09-09T14:00:28;0.90;;;0.73;;
9986;SDS011;5033;46.310;11.214;2022-09-09T14:02:57;0.75;;;0.75;;
9986;SDS011;5033;46.310;11.214;2022-09-09T14:05:27;0.80;;;0.80;;
9986;SDS011;5033;46.310;11.214;2022-09-09T14:07:56;1.38;;;0.82;;
9986;SDS011;5033;46.310;11.214;2022-09-09T14:10:25;1.63;;;0.98;;
9986;SDS011;5033;46.310;11.214;2022-09-09T14:12:52;1.00;;;1.00;;
9986;SDS011;5033;46.310;11.214;2022-09-09T14:15:20;0.70;;;0.70;;
9986;SDS011;5033;46.310;11.214;2022-09-09T14:17:47;1.00;;;0.90;;
9986;SDS011;5033;46.310;11.214;2022-09-09T14:20:14;1.23;;;0.90;;
9986;SDS011;5033;46.310;11.214;2022-09-09T14:22:42;0.68;;;0.60;;
9986;SDS011;5033;46.310;11.214;2022-09-09T14:25:11;1.52;;;0.90;;
9986;SDS011;5033;46.310;11.214;2022-09-09T14:27:39;0.70;;;0.70;;
9986;SDS011;5033;46.310;11.214;2022-09-09T14:30:08;1.23;;;0.70;;
9986;SDS011;5033;46.310;11.214;2022-09-09T14:32:35;0.70;;;0.70;;
9986;SDS011;5033;46.310;11.214;2022-09-09T14:35:03;0.80;;;0.80;;
9986;SDS011;5033;46.310;11.214;2022-09-09T14:37:30;0.70;;;0.70;;
9986;SDS011;5033;46.310;11.214;2022-09-09T14:39:58;0.88;;;0.82;;
9986;SDS011;5033;46.310;11.214;2022-09-09T14:42:26;1.85;;;0.80;;
9986;SDS011;5033;46.310;11.214;2022-09-09T14:44:55;0.82;;;0.75;;
9986;SDS011;5033;46.310;11.214;2022-09-09T14:47:22;0.70;;;0.70;;
9986;SDS011;5033;46.310;11.214;2022-09-09T14:49:49;0.88;;;0.70;;
9986;SDS011;5033;46.310;11.214;2022-09-09T14:52:16;0.70;;;0.70;;
9986;SDS011;5033;46.310;11.214;2022-09-09T14:54:43;1.33;;;0.73;;
9986;SDS011;5033;46.310;11.214;2022-09-09T14:57:10;0.60;;;0.60;;
9986;SDS011;5033;46.310;11.214;2022-09-09T14:59:39;0.68;;;0.68;;
9986;SDS011;5033;46.310;11.214;2022-09-09T15:02:07;0.82;;;0.70;;
9986;SDS011;5033;46.310;11.214;2022-09-09T15:04:35;0.63;;;0.60;;
9986;SDS011;5033;46.310;11.214;2022-09-09T15:07:02;0.60;;;0.60;;
9986;SDS011;5033;46.310;11.214;2022-09-09T15:09:29;0.60;;;0.60;;
9986;SDS011;5033;46.310;11.214;2022-09-09T15:11:56;0.60;;;0.60;;
9986;SDS011;5033;46.310;11.214;2022-09-09T15:14:23;0.60;;;0.60;;
9986;SDS011;5033;46.310;11.214;2022-09-09T15:16:52;0.50;;;0.50;;
9986;SDS011;5033;46.310;11.214;2022-09-09T15:19:19;1.35;;;0.60;;
9986;SDS011;5033;46.310;11.214;2022-09-09T15:21:46;0.77;;;0.60;;
9986;SDS011;5033;46.310;11.214;2022-09-09T15:24:15;0.60;;;0.60;;
9986;SDS011;5033;46.310;11.214;2022-09-09T15:26:42;0.60;;;0.60;;
9986;SDS011;5033;46.310;11.214;2022-09-09T15:29:09;0.70;;;0.70;;
9986;SDS011;5033;46.310;11.214;2022-09-09T15:31:36;0.70;;;0.70;;
9986;SDS011;5033;46.310;11.214;2022-09-09T15:34:05;1.30;;;0.60;;
9986;SDS011;5033;46.310;11.214;2022-09-09T15:36:34;0.68;;;0.65;;
9986;SDS011;5033;46.310;11.214;2022-09-09T15:39:02;1.02;;;0.93;;
9986;SDS011;5033;46.310;11.214;2022-09-09T15:41:31;1.60;;;0.60;;